Data for 07/09/2013

Time Sea-Level Adjusted Pressure Absolute Pressure Temperature Relative Humidity Dew Point   
(mb) (inHg) (mb) (inHg) (C) (F) (%) (C) (F)
00:05 1022 30.18 852 25.16 15.3 59.5 73 10.5 50.9
00:10 1022 30.18 852 25.16 15.3 59.5 72 10.3 50.5
00:15 1023 30.21 852 25.16 15.4 59.8 72 10.4 50.7
00:20 1023 30.21 852 25.16 15.4 59.7 72 10.3 50.6
00:25 1023 30.21 852 25.16 15.5 59.9 72 10.5 50.8
00:30 1022 30.18 852 25.16 15.7 60.3 69 10.2 50.4
00:35 1023 30.21 852 25.16 15.7 60.2 70 10.3 50.6
00:40 1023 30.21 852 25.16 15.5 59.9 71 10.3 50.6
00:45 1023 30.21 852 25.16 15.3 59.5 72 10.2 50.4
00:50 1023 30.21 852 25.16 15.1 59.2 73 10.3 50.5
00:55 1023 30.21 852 25.16 14.9 58.7 74 10.3 50.6
01:00 1023 30.21 852 25.16 14.6 58.3 76 10.4 50.8
01:05 1023 30.21 852 25.16 14.4 58 77 10.4 50.7
01:10 1023 30.21 852 25.16 14.4 58 76 10.2 50.4
01:15 1023 30.21 852 25.16 14.6 58.3 74 10 50
01:20 1023 30.21 852 25.16 14.7 58.5 73 10 50.1
01:25 1023 30.21 852 25.16 14.7 58.5 73 9.9 49.8
01:30 1023 30.21 852 25.16 14.7 58.5 72 9.7 49.4
01:35 1023 30.21 852 25.16 14.8 58.6 75 10.4 50.8
01:40 1023 30.21 852 25.16 14.5 58.2 75 10.2 50.3
01:45 1023 30.21 852 25.16 14.3 57.7 75 9.9 49.9
01:50 1023 30.21 852 25.16 14.5 58 73 9.8 49.6
01:55 1023 30.21 852 25.16 14.5 58 75 10.1 50.2
02:00 1023 30.21 852 25.16 14.4 57.9 73 9.7 49.5
02:05 1023 30.21 852 25.16 14.3 57.8 72 9.4 48.9
02:10 1023 30.21 852 25.16 14.3 57.8 70 8.9 48
02:15 1023 30.21 852 25.16 14.4 57.8 70 9.1 48.4
02:20 1023 30.21 852 25.16 14.2 57.6 68 8.6 47.4
02:25 1023 30.21 852 25.16 14.3 57.8 68 8.6 47.5
02:30 1023 30.21 852 25.16 14.4 58 68 8.8 47.8
02:35 1023 30.21 852 25.16 14.5 58 68 8.7 47.6
02:40 1023 30.21 852 25.16 14.3 57.8 67 8.4 47
02:45 1023 30.21 852 25.16 14.3 57.7 69 8.7 47.7
02:50 1023 30.21 852 25.16 13.9 57.1 72 9 48.2
02:55 1023 30.21 852 25.16 13.6 56.4 74 9.1 48.3
03:00 1023 30.21 852 25.16 13.4 56.1 68 7.5 45.6
03:05 1023 30.21 852 25.16 13.9 56.9 70 8.5 47.3
03:10 1023 30.21 853 25.19 13.7 56.6 69 8.2 46.8
03:15 1023 30.21 853 25.19 13.7 56.6 68 8 46.4
03:20 1023 30.21 853 25.19 13.6 56.4 70 8.2 46.8
03:25 1023 30.21 853 25.19 13.3 55.9 71 8.2 46.7
03:30 1023 30.21 853 25.19 13 55.3 71 7.8 46.1
03:35 1023 30.21 853 25.19 13.3 55.9 68 7.6 45.7
03:40 1024 30.24 853 25.19 13.5 56.3 66 7.4 45.4
03:45 1024 30.24 853 25.19 13.5 56.2 67 7.5 45.4
03:50 1024 30.24 853 25.19 13.2 55.8 68 7.4 45.3
03:55 1024 30.24 853 25.19 13.1 55.6 67 7.2 45
04:00 1024 30.24 853 25.19 12.9 55.3 67 7.1 44.7
04:05 1024 30.24 853 25.19 12.8 55.1 68 7.1 44.9
04:10 1024 30.24 853 25.19 12.5 54.5 69 7 44.6
04:15 1024 30.24 853 25.19 12.4 54.3 66 6.3 43.4
04:20 1024 30.24 853 25.19 12.7 54.9 65 6.3 43.4
04:25 1024 30.24 853 25.19 13 55.4 64 6.4 43.5
04:30 1024 30.24 853 25.19 13.1 55.6 65 6.6 43.9
04:35 1024 30.24 853 25.19 12.9 55.3 66 6.8 44.2
04:40 1024 30.24 853 25.19 12.9 55.2 64 6.3 43.3
04:45 1024 30.24 853 25.19 12.7 54.8 65 6.3 43.4
04:50 1024 30.24 853 25.19 12.3 54.2 66 6.1 43
04:55 1024 30.24 853 25.19 12.2 54 65 5.9 42.5
05:00 1024 30.24 853 25.19 12.2 53.9 65 5.9 42.6
05:05 1024 30.24 853 25.19 12.2 54 66 6.2 43.1
05:10 1024 30.24 853 25.19 12.2 53.9 65 5.9 42.5
05:15 1024 30.24 853 25.19 12 53.5 66 5.9 42.7
05:20 1024 30.24 853 25.19 11.8 53.3 66 5.8 42.4
05:25 1024 30.24 853 25.19 12 53.6 64 5.5 41.9
05:30 1024 30.24 853 25.19 12.4 54.3 62 5.3 41.6
05:35 1024 30.24 853 25.19 12.9 55.2 60 5.4 41.7
05:40 1024 30.24 853 25.19 13.1 55.6 63 6.3 43.4
05:45 1024 30.24 853 25.19 13 55.4 65 6.5 43.8
05:50 1024 30.24 854 25.22 13 55.5 65 6.7 44
05:55 1024 30.24 854 25.22 12.8 55.1 66 6.8 44.2
06:00 1024 30.24 854 25.22 13 55.3 65 6.5 43.8
06:05 1025 30.27 854 25.22 13.1 55.6 65 6.7 44.1
06:10 1025 30.27 854 25.22 13.4 56 65 6.9 44.4
06:15 1025 30.27 854 25.22 13.6 56.5 63 6.7 44
06:20 1025 30.27 854 25.22 13.8 56.9 64 7.2 44.9
06:25 1025 30.27 854 25.22 14.1 57.4 64 7.4 45.3
06:30 1025 30.27 854 25.22 13.9 57 65 7.5 45.4
06:35 1025 30.27 854 25.22 13.9 57 64 7.3 45.1
06:40 1025 30.27 854 25.22 13.9 57 63 7.1 44.8
06:45 1025 30.27 854 25.22 14.2 57.5 63 7.3 45.1
06:50 1025 30.27 854 25.22 14.5 58.2 62 7.4 45.2
06:55 1025 30.27 854 25.22 14.7 58.5 58 6.7 44.1
07:00 1025 30.27 854 25.22 15.2 59.4 56 6.6 43.9
07:05 1025 30.27 854 25.22 15.8 60.4 56 7.2 44.9
07:10 1025 30.27 854 25.22 16.3 61.3 54 7.1 44.8
07:15 1025 30.27 854 25.22 16.6 61.9 54 7.3 45.2
07:20 1025 30.27 854 25.22 16.7 62 54 7.4 45.4
07:25 1025 30.27 854 25.22 17.5 63.5 50 7 44.6
07:30 1025 30.27 854 25.22 18.1 64.7 50 7.6 45.7
07:35 1025 30.27 854 25.22 18.2 64.8 49 7.4 45.3
07:40 1025 30.27 854 25.22 18.8 65.9 46 7.2 44.9
07:45 1025 30.27 854 25.22 19 66.2 47 7.6 45.7
07:50 1025 30.27 854 25.22 19.4 67 43 6.6 43.8
07:55 1025 30.27 854 25.22 19.8 67.6 43 7 44.5
08:00 1025 30.27 854 25.22 19.9 67.8 43 7.1 44.7
08:05 1025 30.27 854 25.22 19.7 67.4 45 7.4 45.4
08:10 1025 30.27 854 25.22 19.2 66.6 45 7 44.6
08:15 1025 30.27 854 25.22 19 66.1 44 6.5 43.8
08:20 1025 30.27 854 25.22 18.9 65.9 45 6.7 44.1
08:25 1025 30.27 854 25.22 19.3 66.7 42 6.4 43.5
08:30 1025 30.27 854 25.22 20.2 68.4 42 7.1 44.8
08:35 1025 30.27 854 25.22 20.3 68.6 41 7 44.6
08:40 1025 30.27 854 25.22 20.3 68.6 43 7.5 45.5
08:45 1025 30.27 854 25.22 20 67.9 43 7 44.6
08:50 1025 30.27 854 25.22 20.7 69.2 41 7 44.6
08:55 1025 30.27 854 25.22 20.1 68.2 44 7.5 45.5
09:00 1025 30.27 854 25.22 20 68.1 40 6.3 43.3
09:05 1025 30.27 854 25.22 20.9 69.6 37 5.9 42.7
09:10 1025 30.27 854 25.22 21.4 70.6 37 6.4 43.5
09:15 1025 30.27 854 25.22 21.8 71.3 36 6.3 43.3
09:20 1025 30.27 854 25.22 21.5 70.7 39 7 44.5
09:25 1025 30.27 854 25.22 21.3 70.3 36 5.6 42.2
09:30 1025 30.27 854 25.22 21.4 70.6 35 5.4 41.8
09:35 1025 30.27 854 25.22 21.6 70.9 32 4.3 39.8
09:40 1025 30.27 854 25.22 21.7 71.1 29 3.2 37.7
09:45 1025 30.27 854 25.22 21.9 71.4 30 3.7 38.6
09:50 1025 30.27 854 25.22 22.3 72.2 28 3.2 37.7
09:55 1025 30.27 854 25.22 21.9 71.4 30 3.9 39.1
10:00 1025 30.27 854 25.22 21.3 70.3 29 2.7 36.9
10:05 1025 30.27 854 25.22 21.4 70.4 29 2.8 37
10:10 1025 30.27 854 25.22 22.2 72 30 4 39.2
10:15 1025 30.27 854 25.22 22.9 73.1 28 3.4 38.2
10:20 1025 30.27 854 25.22 23 73.5 29 4.2 39.5
10:25 1025 30.27 854 25.22 22.4 72.3 29 3.9 39
10:30 1025 30.27 854 25.22 22.3 72.1 30 4.1 39.4
10:35 1025 30.27 854 25.22 23.5 74.4 28 4 39.2
10:40 1025 30.27 854 25.22 24.2 75.6 26 3.9 39
10:45 1025 30.27 854 25.22 24.3 75.8 25 3.5 38.3
10:50 1025 30.27 854 25.22 24.1 75.3 26 3.5 38.2
10:55 1025 30.27 854 25.22 24.1 75.4 27 4 39.2
11:00 1025 30.27 854 25.22 24.4 75.9 27 4.3 39.7
11:05 1025 30.27 854 25.22 24.4 75.9 26 4 39.2
11:10 1025 30.27 854 25.22 24.4 75.8 26 3.7 38.7
11:15 1025 30.27 854 25.22 24.2 75.5 27 4.2 39.5
11:20 1025 30.27 854 25.22 24.5 76.2 27 4.8 40.6
11:25 1025 30.27 854 25.22 24.5 76 26 4.2 39.5
11:30 1025 30.27 854 25.22 24.5 76 26 3.8 38.8
11:35 1025 30.27 854 25.22 24.5 76.1 27 4.7 40.5
11:40 1025 30.27 854 25.22 24.1 75.3 28 4.5 40.1
11:45 1024 30.24 854 25.22 23.5 74.3 28 4 39.3
11:50 1024 30.24 854 25.22 24.5 76 26 4 39.2
11:55 1024 30.24 854 25.22 25.6 78.2 25 4.2 39.6
12:00 1024 30.24 854 25.22 25.7 78.2 26 4.8 40.6
12:05 1024 30.24 854 25.22 24.6 76.4 26 4.1 39.4
12:10 1024 30.24 854 25.22 24.9 76.7 27 4.7 40.4
12:15 1024 30.24 853 25.19 25.6 78 26 4.9 40.9
12:20 1024 30.24 853 25.19 25.9 78.6 25 4.8 40.6
12:25 1024 30.24 853 25.19 26.3 79.3 25 5.1 41.2
12:30 1024 30.24 853 25.19 26.3 79.3 25 4.8 40.7
12:35 1024 30.24 853 25.19 26 78.8 24 4.1 39.4
12:40 1024 30.24 853 25.19 26.2 79.1 27 5.8 42.4
12:45 1024 30.24 853 25.19 26.4 79.5 25 4.9 40.9
12:50 1024 30.24 853 25.19 26.4 79.6 24 4.3 39.7
12:55 1024 30.24 853 25.19 26.5 79.7 26 5.6 42.2
13:00 1024 30.24 853 25.19 26.2 79.1 24 4.1 39.5
13:05 1024 30.24 853 25.19 26.6 79.8 24 4.6 40.4
13:10 1024 30.24 853 25.19 26.3 79.3 22 3.1 37.5
13:15 1024 30.24 853 25.19 26.7 80.1 23 4.1 39.4
13:20 1024 30.24 853 25.19 27.4 81.3 23 4.8 40.6
13:25 1024 30.24 853 25.19 26.7 80.1 23 4.2 39.6
13:30 1024 30.24 853 25.19 26.3 79.3 24 4.5 40.1
13:35 1024 30.24 853 25.19 26.7 80.1 22 3.5 38.3
13:40 1024 30.24 853 25.19 26.9 80.3 23 4.5 40
13:45 1024 30.24 853 25.19 25.9 78.7 23 3.6 38.5
13:50 1023 30.21 853 25.19 25.8 78.4 24 4.1 39.5
13:55 1023 30.21 853 25.19 26.6 79.9 23 4.1 39.4
14:00 1023 30.21 853 25.19 26.1 78.9 24 4 39.2
14:05 1023 30.21 853 25.19 26.5 79.7 22 3.6 38.5
14:10 1023 30.21 853 25.19 26.6 80 21 3.1 37.6
14:15 1023 30.21 853 25.19 26.9 80.3 22 3.9 39
14:20 1023 30.21 852 25.16 27.7 81.8 20 3.2 37.7
14:25 1023 30.21 852 25.16 28.1 82.6 21 4.1 39.4
14:30 1023 30.21 852 25.16 27.5 81.6 23 4.6 40.3
14:35 1023 30.21 852 25.16 27.5 81.5 21 3.6 38.5
14:40 1023 30.21 852 25.16 27.5 81.5 20 2.9 37.2
14:45 1023 30.21 852 25.16 27.6 81.6 21 3.5 38.4
14:50 1023 30.21 852 25.16 28.4 83.1 20 3.9 39
14:55 1023 30.21 852 25.16 28.1 82.6 21 4 39.2
15:00 1023 30.21 852 25.16 27.6 81.7 21 3.5 38.3
15:05 1023 30.21 852 25.16 27.7 81.9 20 3.2 37.8
15:10 1023 30.21 852 25.16 27.8 82 20 3.3 37.9
15:15 1023 30.21 852 25.16 28.3 82.9 20 3.7 38.6
15:20 1023 30.21 852 25.16 28.2 82.7 20 3.6 38.5
15:25 1023 30.21 852 25.16 28.2 82.7 20 3.3 38
15:30 1023 30.21 852 25.16 28 82.3 20 3.5 38.3
15:35 1023 30.21 852 25.16 28.2 82.8 20 3.1 37.6
15:40 1023 30.21 852 25.16 28.3 82.9 19 2.7 36.9
15:45 1023 30.21 852 25.16 28.1 82.5 19 2.5 36.5
15:50 1023 30.21 852 25.16 28.9 83.9 18 2.1 35.8
15:55 1023 30.21 852 25.16 28.7 83.7 19 3.2 37.8
16:00 1023 30.21 852 25.16 28.8 83.8 17 1.9 35.3
16:05 1023 30.21 852 25.16 28 82.5 19 2.4 36.3
16:10 1023 30.21 852 25.16 28.1 82.6 18 2.2 36
16:15 1022 30.18 852 25.16 29.1 84.3 18 2.8 37
16:20 1022 30.18 852 25.16 29.3 84.8 18 2.8 37
16:25 1022 30.18 852 25.16 29.3 84.7 19 3.2 37.8
16:30 1022 30.18 852 25.16 29.3 84.7 17 2 35.5
16:35 1022 30.18 852 25.16 28.9 84.1 18 2.3 36.2
16:40 1022 30.18 852 25.16 29 84.3 17 2.1 35.8
16:45 1022 30.18 851 25.13 29.2 84.6 18 2.5 36.5
16:50 1022 30.18 851 25.13 29.3 84.8 18 2.9 37.2
16:55 1022 30.18 851 25.13 29.4 85 17 2.5 36.5
17:00 1022 30.18 851 25.13 29.2 84.6 17 1.8 35.3
17:05 1022 30.18 851 25.13 29.4 84.9 17 2.1 35.8
17:10 1022 30.18 851 25.13 28.9 84.1 16 1.1 34
17:15 1022 30.18 851 25.13 28.8 83.9 18 2.1 35.8
17:20 1022 30.18 851 25.13 28.8 83.8 17 1.7 35
17:25 1022 30.18 851 25.13 28.3 83 18 1.8 35.3
17:30 1022 30.18 851 25.13 27.9 82.1 18 1.6 34.9
17:35 1022 30.18 851 25.13 27.7 81.8 18 1.5 34.8
17:40 1022 30.18 851 25.13 27.8 82 18 1.6 35
17:45 1022 30.18 851 25.13 27.8 82 18 1.6 34.9
17:50 1022 30.18 851 25.13 27.8 82.1 18 1.6 34.9
17:55 1022 30.18 851 25.13 27.9 82.3 18 1.4 34.4
18:00 1022 30.18 851 25.13 27.8 82 17 1.2 34.2
18:05 1022 30.18 851 25.13 28 82.4 17 1 33.7
18:10 1022 30.18 851 25.13 28.7 83.6 17 1.2 34.1
18:15 1022 30.18 851 25.13 28.8 83.8 16 0.4 32.8
18:20 1022 30.18 851 25.13 28.2 82.8 15 -0.5 31.1
18:25 1022 30.18 851 25.13 28 82.3 17 0.8 33.5
18:30 1022 30.18 851 25.13 27.8 82.1 17 0.5 32.9
18:35 1022 30.18 851 25.13 27.4 81.4 17 0.6 33.1
18:40 1022 30.18 851 25.13 27.3 81.1 17 0.5 33
18:45 1022 30.18 851 25.13 27.1 80.9 18 0.7 33.3
18:50 1022 30.18 851 25.13 27.1 80.8 18 0.9 33.5
18:55 1022 30.18 851 25.13 27.1 80.7 20 2.2 36
19:00 1022 30.18 851 25.13 27 80.6 19 1.5 34.6
19:05 1022 30.18 851 25.13 26.9 80.4 17 0.5 32.8
19:10 1022 30.18 851 25.13 27 80.5 18 1.2 34.2
19:15 1022 30.18 851 25.13 26.8 80.2 22 3.8 38.9
19:20 1022 30.18 851 25.13 26.4 79.4 26 5.4 41.7
19:25 1022 30.18 851 25.13 26.1 79 25 5 41
19:30 1022 30.18 851 25.13 26 78.7 27 5.6 42.1
19:35 1022 30.18 851 25.13 25.8 78.4 26 5.3 41.6
19:40 1022 30.18 851 25.13 25.6 78.1 25 4.5 40.1
19:45 1022 30.18 851 25.13 25.5 78 28 5.9 42.7
19:50 1022 30.18 851 25.13 25 77 28 5.3 41.5
19:55 1022 30.18 851 25.13 24.5 76.1 27 4.7 40.4
20:00 1022 30.18 851 25.13 24.2 75.6 27 4.5 40.1
20:05 1022 30.18 851 25.13 24 75.2 27 4 39.1
20:10 1022 30.18 851 25.13 23.8 74.9 26 3.7 38.6
20:15 1022 30.18 851 25.13 23.7 74.7 26 3.5 38.3
20:20 1022 30.18 851 25.13 23.5 74.3 26 3 37.4
20:25 1022 30.18 851 25.13 23.4 74.1 26 3.1 37.7
20:30 1022 30.18 851 25.13 23.2 73.7 27 3.3 37.9
20:35 1022 30.18 851 25.13 22.9 73.2 27 3.1 37.6
20:40 1022 30.18 851 25.13 22.8 73.1 27 2.9 37.2
20:45 1022 30.18 851 25.13 22.7 72.8 27 2.9 37.2
20:50 1022 30.18 851 25.13 22.6 72.7 28 3.5 38.3
20:55 1022 30.18 851 25.13 22.5 72.6 28 3.5 38.3
21:00 1022 30.18 851 25.13 22.4 72.4 30 4.3 39.7
21:05 1022 30.18 851 25.13 22.1 71.9 32 4.9 40.8
21:10 1022 30.18 851 25.13 21.9 71.5 33 5.3 41.5
21:15 1022 30.18 851 25.13 21.9 71.5 34 5.7 42.3
21:20 1022 30.18 851 25.13 21.8 71.3 37 6.8 44.2
21:25 1022 30.18 851 25.13 21.7 71.1 38 7.1 44.8
21:30 1022 30.18 851 25.13 21.6 70.8 39 7.2 45
21:35 1022 30.18 851 25.13 21.5 70.6 40 7.4 45.4
21:40 1022 30.18 851 25.13 21.5 70.6 40 7.6 45.8
21:45 1022 30.18 851 25.13 21.3 70.4 41 7.8 46
21:50 1022 30.18 851 25.13 21.3 70.4 41 7.9 46.2
21:55 1022 30.18 851 25.13 21.4 70.4 41 7.8 46
22:00 1022 30.18 851 25.13 21.3 70.4 42 7.9 46.2
22:05 1022 30.18 851 25.13 21.2 70.1 42 7.8 46.1
22:10 1022 30.18 851 25.13 21.1 69.9 42 7.8 46.1
22:15 1022 30.18 851 25.13 20.9 69.5 43 7.9 46.2
22:20 1022 30.18 852 25.16 20.6 69.1 44 8.2 46.8
22:25 1022 30.18 852 25.16 20.4 68.7 45 8.3 47
22:30 1022 30.18 852 25.16 20.3 68.5 46 8.4 47.2
22:35 1023 30.21 852 25.16 20.2 68.3 45 8.2 46.7
22:40 1023 30.21 852 25.16 20.1 68.2 46 8.4 47
22:45 1023 30.21 852 25.16 20 67.9 48 8.8 47.8
22:50 1023 30.21 852 25.16 19.8 67.7 48 8.8 47.8
22:55 1023 30.21 852 25.16 19.8 67.6 49 9 48.1
23:00 1023 30.21 852 25.16 19.7 67.5 49 8.9 48
23:05 1023 30.21 852 25.16 19.7 67.5 50 9 48.2
23:10 1023 30.21 852 25.16 19.7 67.4 50 9.1 48.4
23:15 1023 30.21 852 25.16 19.5 67.1 51 9.1 48.4
23:20 1023 30.21 852 25.16 19.4 66.9 51 9.2 48.5
23:25 1023 30.21 852 25.16 19.3 66.7 52 9.2 48.5
23:30 1023 30.21 852 25.16 19.2 66.5 52 9.3 48.7
23:35 1023 30.21 852 25.16 19.1 66.3 53 9.3 48.7
23:40 1023 30.21 852 25.16 18.9 66.1 53 9.3 48.8
23:45 1023 30.21 852 25.16 18.9 65.9 53 9.3 48.7
23:50 1023 30.21 852 25.16 18.9 65.9 54 9.4 48.9
23:55 1023 30.21 852 25.16 18.7 65.7 54 9.5 49
24:00 1023 30.21 852 25.16 18.7 65.6 55 9.5 49.1